sensor_id;sensor_type;location;lat;lon;timestamp;temperature;humidity
23556;DHT22;11956;53.184;8.578;2023-05-18T00:02:11;9.30;99.90
23556;DHT22;11956;53.184;8.578;2023-05-18T00:05:18;9.30;99.90
23556;DHT22;11956;53.184;8.578;2023-05-18T00:08:18;9.30;99.90
23556;DHT22;11956;53.184;8.578;2023-05-18T00:11:20;9.30;99.90
23556;DHT22;11956;53.184;8.578;2023-05-18T00:14:21;9.20;99.90
23556;DHT22;11956;53.184;8.578;2023-05-18T00:17:22;9.30;99.90
23556;DHT22;11956;53.184;8.578;2023-05-18T00:20:23;9.30;99.90
23556;DHT22;11956;53.184;8.578;2023-05-18T00:23:29;9.20;99.90
23556;DHT22;11956;53.184;8.578;2023-05-18T00:26:32;9.10;99.90
23556;DHT22;11956;53.184;8.578;2023-05-18T00:29:33;9.10;99.90
23556;DHT22;11956;53.184;8.578;2023-05-18T00:32:34;9.10;99.90
23556;DHT22;11956;53.184;8.578;2023-05-18T00:35:35;9.10;99.90
23556;DHT22;11956;53.184;8.578;2023-05-18T00:38:35;9.00;99.90
23556;DHT22;11956;53.184;8.578;2023-05-18T00:41:36;9.00;99.90
23556;DHT22;11956;53.184;8.578;2023-05-18T00:44:38;9.00;99.90
23556;DHT22;11956;53.184;8.578;2023-05-18T00:47:38;9.00;99.90
23556;DHT22;11956;53.184;8.578;2023-05-18T00:50:40;9.00;99.90
23556;DHT22;11956;53.184;8.578;2023-05-18T00:53:42;8.90;99.90
23556;DHT22;11956;53.184;8.578;2023-05-18T00:56:43;8.80;99.90
23556;DHT22;11956;53.184;8.578;2023-05-18T00:59:46;8.80;99.90
23556;DHT22;11956;53.184;8.578;2023-05-18T01:02:48;8.80;99.90
23556;DHT22;11956;53.184;8.578;2023-05-18T01:05:51;8.80;99.90
23556;DHT22;11956;53.184;8.578;2023-05-18T01:08:59;8.80;99.90
23556;DHT22;11956;53.184;8.578;2023-05-18T01:12:42;8.80;99.90
23556;DHT22;11956;53.184;8.578;2023-05-18T01:15:51;8.80;99.90
23556;DHT22;11956;53.184;8.578;2023-05-18T01:19:02;8.70;99.90
23556;DHT22;11956;53.184;8.578;2023-05-18T01:26:16;8.70;99.90
23556;DHT22;11956;53.184;8.578;2023-05-18T01:29:25;8.60;99.90
23556;DHT22;11956;53.184;8.578;2023-05-18T01:32:29;8.50;99.90
23556;DHT22;11956;53.184;8.578;2023-05-18T01:35:31;8.50;99.90
23556;DHT22;11956;53.184;8.578;2023-05-18T01:38:32;8.40;99.90
23556;DHT22;11956;53.184;8.578;2023-05-18T01:41:35;8.40;99.90
23556;DHT22;11956;53.184;8.578;2023-05-18T01:44:50;8.40;99.90
23556;DHT22;11956;53.184;8.578;2023-05-18T01:47:56;8.30;99.90
23556;DHT22;11956;53.184;8.578;2023-05-18T01:50:59;8.30;99.90
23556;DHT22;11956;53.184;8.578;2023-05-18T01:54:06;8.20;99.90
23556;DHT22;11956;53.184;8.578;2023-05-18T01:57:11;8.20;99.90
23556;DHT22;11956;53.184;8.578;2023-05-18T02:00:13;8.20;99.90
23556;DHT22;11956;53.184;8.578;2023-05-18T02:03:20;8.20;99.90
23556;DHT22;11956;53.184;8.578;2023-05-18T02:06:21;8.10;99.90
23556;DHT22;11956;53.184;8.578;2023-05-18T02:09:23;8.10;99.90
23556;DHT22;11956;53.184;8.578;2023-05-18T02:12:24;8.20;99.90
23556;DHT22;11956;53.184;8.578;2023-05-18T02:15:26;8.20;99.90
23556;DHT22;11956;53.184;8.578;2023-05-18T02:18:26;8.20;99.90
23556;DHT22;11956;53.184;8.578;2023-05-18T02:21:28;8.20;99.90
23556;DHT22;11956;53.184;8.578;2023-05-18T02:24:29;8.20;99.90
23556;DHT22;11956;53.184;8.578;2023-05-18T02:27:30;8.20;99.90
23556;DHT22;11956;53.184;8.578;2023-05-18T02:30:32;8.20;99.90
23556;DHT22;11956;53.184;8.578;2023-05-18T02:33:34;8.20;99.90
23556;DHT22;11956;53.184;8.578;2023-05-18T02:36:42;8.20;99.90
23556;DHT22;11956;53.184;8.578;2023-05-18T02:39:43;8.20;99.90
23556;DHT22;11956;53.184;8.578;2023-05-18T02:42:43;8.20;99.90
23556;DHT22;11956;53.184;8.578;2023-05-18T02:45:45;8.10;99.90
23556;DHT22;11956;53.184;8.578;2023-05-18T02:48:46;8.20;99.90
23556;DHT22;11956;53.184;8.578;2023-05-18T02:51:47;8.20;99.90
23556;DHT22;11956;53.184;8.578;2023-05-18T02:54:48;8.30;99.90
23556;DHT22;11956;53.184;8.578;2023-05-18T02:57:56;8.30;99.90
23556;DHT22;11956;53.184;8.578;2023-05-18T03:01:04;8.40;99.90
23556;DHT22;11956;53.184;8.578;2023-05-18T03:04:14;8.10;99.90
23556;DHT22;11956;53.184;8.578;2023-05-18T03:07:22;8.30;99.90
23556;DHT22;11956;53.184;8.578;2023-05-18T03:10:23;8.40;99.90
23556;DHT22;11956;53.184;8.578;2023-05-18T03:13:24;8.30;99.90
23556;DHT22;11956;53.184;8.578;2023-05-18T03:16:26;8.30;99.90
23556;DHT22;11956;53.184;8.578;2023-05-18T03:19:28;8.30;99.90
23556;DHT22;11956;53.184;8.578;2023-05-18T03:22:29;8.30;99.90
23556;DHT22;11956;53.184;8.578;2023-05-18T03:25:30;8.30;99.90
23556;DHT22;11956;53.184;8.578;2023-05-18T03:28:32;8.40;99.90
23556;DHT22;11956;53.184;8.578;2023-05-18T03:31:34;8.40;99.90
23556;DHT22;11956;53.184;8.578;2023-05-18T03:34:36;8.40;99.90
23556;DHT22;11956;53.184;8.578;2023-05-18T03:37:38;8.40;99.90
23556;DHT22;11956;53.184;8.578;2023-05-18T03:40:40;8.40;99.90
23556;DHT22;11956;53.184;8.578;2023-05-18T03:43:40;8.40;99.90
23556;DHT22;11956;53.184;8.578;2023-05-18T03:46:41;8.40;99.90
23556;DHT22;11956;53.184;8.578;2023-05-18T03:49:42;8.40;99.90
23556;DHT22;11956;53.184;8.578;2023-05-18T03:52:44;8.40;99.90
23556;DHT22;11956;53.184;8.578;2023-05-18T03:55:45;8.50;99.90
23556;DHT22;11956;53.184;8.578;2023-05-18T03:58:46;8.60;99.90
23556;DHT22;11956;53.184;8.578;2023-05-18T04:01:47;8.60;99.90
23556;DHT22;11956;53.184;8.578;2023-05-18T04:04:53;8.70;99.90
23556;DHT22;11956;53.184;8.578;2023-05-18T04:07:54;8.80;99.90
23556;DHT22;11956;53.184;8.578;2023-05-18T04:10:56;8.80;99.90
23556;DHT22;11956;53.184;8.578;2023-05-18T04:13:57;8.90;99.90
23556;DHT22;11956;53.184;8.578;2023-05-18T04:17:01;8.90;99.90
23556;DHT22;11956;53.184;8.578;2023-05-18T04:20:06;8.90;99.90
23556;DHT22;11956;53.184;8.578;2023-05-18T04:23:12;8.90;99.90
23556;DHT22;11956;53.184;8.578;2023-05-18T04:26:13;9.00;99.90
23556;DHT22;11956;53.184;8.578;2023-05-18T04:29:19;9.00;99.90
23556;DHT22;11956;53.184;8.578;2023-05-18T04:32:20;9.10;99.90
23556;DHT22;11956;53.184;8.578;2023-05-18T04:35:21;9.10;99.90
23556;DHT22;11956;53.184;8.578;2023-05-18T04:38:22;9.20;99.90
23556;DHT22;11956;53.184;8.578;2023-05-18T04:41:26;9.20;99.90
23556;DHT22;11956;53.184;8.578;2023-05-18T04:44:27;9.30;99.90
23556;DHT22;11956;53.184;8.578;2023-05-18T04:47:31;9.30;99.90
23556;DHT22;11956;53.184;8.578;2023-05-18T04:50:33;9.40;99.90
23556;DHT22;11956;53.184;8.578;2023-05-18T04:53:38;9.40;99.90
23556;DHT22;11956;53.184;8.578;2023-05-18T04:56:38;9.50;99.90
23556;DHT22;11956;53.184;8.578;2023-05-18T04:59:41;9.60;99.90
23556;DHT22;11956;53.184;8.578;2023-05-18T05:02:45;9.70;99.90
23556;DHT22;11956;53.184;8.578;2023-05-18T05:05:46;9.70;99.90
23556;DHT22;11956;53.184;8.578;2023-05-18T05:08:48;9.80;99.90
23556;DHT22;11956;53.184;8.578;2023-05-18T05:11:48;9.90;99.90
23556;DHT22;11956;53.184;8.578;2023-05-18T05:14:49;9.90;99.90
23556;DHT22;11956;53.184;8.578;2023-05-18T05:17:50;10.00;99.90
23556;DHT22;11956;53.184;8.578;2023-05-18T05:20:52;10.00;99.90
23556;DHT22;11956;53.184;8.578;2023-05-18T05:23:54;10.20;99.90
23556;DHT22;11956;53.184;8.578;2023-05-18T05:26:55;10.30;99.90
23556;DHT22;11956;53.184;8.578;2023-05-18T05:29:55;10.40;99.90
23556;DHT22;11956;53.184;8.578;2023-05-18T05:32:56;10.40;99.90
23556;DHT22;11956;53.184;8.578;2023-05-18T05:35:58;10.50;99.90
23556;DHT22;11956;53.184;8.578;2023-05-18T05:38:59;10.60;99.90
23556;DHT22;11956;53.184;8.578;2023-05-18T05:42:00;10.70;99.90
23556;DHT22;11956;53.184;8.578;2023-05-18T05:45:01;10.80;99.90
23556;DHT22;11956;53.184;8.578;2023-05-18T05:48:03;10.90;99.90
23556;DHT22;11956;53.184;8.578;2023-05-18T05:51:05;11.00;99.90
23556;DHT22;11956;53.184;8.578;2023-05-18T05:54:07;11.10;99.90
23556;DHT22;11956;53.184;8.578;2023-05-18T05:57:08;11.20;99.90
23556;DHT22;11956;53.184;8.578;2023-05-18T06:00:10;11.20;99.90
23556;DHT22;11956;53.184;8.578;2023-05-18T06:03:32;11.10;99.90
23556;DHT22;11956;53.184;8.578;2023-05-18T06:06:37;11.20;99.90
23556;DHT22;11956;53.184;8.578;2023-05-18T06:09:39;11.40;99.90
23556;DHT22;11956;53.184;8.578;2023-05-18T06:12:40;11.60;99.90
23556;DHT22;11956;53.184;8.578;2023-05-18T06:15:41;11.80;99.90
23556;DHT22;11956;53.184;8.578;2023-05-18T06:18:42;11.40;99.90
23556;DHT22;11956;53.184;8.578;2023-05-18T06:21:44;11.40;99.90
23556;DHT22;11956;53.184;8.578;2023-05-18T06:24:46;11.60;99.90
23556;DHT22;11956;53.184;8.578;2023-05-18T06:28:05;11.90;99.90
23556;DHT22;11956;53.184;8.578;2023-05-18T06:31:27;12.10;99.90
23556;DHT22;11956;53.184;8.578;2023-05-18T06:34:33;12.20;99.90
23556;DHT22;11956;53.184;8.578;2023-05-18T06:37:35;11.90;99.90
23556;DHT22;11956;53.184;8.578;2023-05-18T06:40:36;12.20;99.90
23556;DHT22;11956;53.184;8.578;2023-05-18T06:43:36;12.50;99.90
23556;DHT22;11956;53.184;8.578;2023-05-18T06:46:50;12.70;99.90
23556;DHT22;11956;53.184;8.578;2023-05-18T06:49:57;12.60;99.90
23556;DHT22;11956;53.184;8.578;2023-05-18T06:52:58;12.60;99.90
23556;DHT22;11956;53.184;8.578;2023-05-18T06:55:59;12.90;99.90
23556;DHT22;11956;53.184;8.578;2023-05-18T06:59:01;13.00;99.90
23556;DHT22;11956;53.184;8.578;2023-05-18T07:02:03;12.90;99.90
23556;DHT22;11956;53.184;8.578;2023-05-18T07:05:05;12.70;99.90
23556;DHT22;11956;53.184;8.578;2023-05-18T07:08:08;12.70;99.90
23556;DHT22;11956;53.184;8.578;2023-05-18T07:11:09;12.60;99.90
23556;DHT22;11956;53.184;8.578;2023-05-18T07:14:10;12.70;99.90
23556;DHT22;11956;53.184;8.578;2023-05-18T07:17:11;13.10;99.90
23556;DHT22;11956;53.184;8.578;2023-05-18T07:20:12;13.10;99.60
23556;DHT22;11956;53.184;8.578;2023-05-18T07:23:13;12.80;99.60
23556;DHT22;11956;53.184;8.578;2023-05-18T07:26:14;12.80;99.80
23556;DHT22;11956;53.184;8.578;2023-05-18T07:29:15;13.40;99.00
23556;DHT22;11956;53.184;8.578;2023-05-18T07:32:16;13.50;98.00
23556;DHT22;11956;53.184;8.578;2023-05-18T07:35:17;13.50;97.40
23556;DHT22;11956;53.184;8.578;2023-05-18T07:38:21;13.80;97.20
23556;DHT22;11956;53.184;8.578;2023-05-18T07:41:22;14.40;96.80
23556;DHT22;11956;53.184;8.578;2023-05-18T07:44:23;15.40;94.60
23556;DHT22;11956;53.184;8.578;2023-05-18T07:47:24;15.80;93.30
23556;DHT22;11956;53.184;8.578;2023-05-18T07:50:25;15.40;93.70
23556;DHT22;11956;53.184;8.578;2023-05-18T07:53:26;14.90;94.00
23556;DHT22;11956;53.184;8.578;2023-05-18T07:56:28;15.20;94.20
23556;DHT22;11956;53.184;8.578;2023-05-18T07:59:29;15.00;94.00
23556;DHT22;11956;53.184;8.578;2023-05-18T08:02:30;14.90;93.80
23556;DHT22;11956;53.184;8.578;2023-05-18T08:05:30;16.50;92.80
23556;DHT22;11956;53.184;8.578;2023-05-18T08:08:32;20.10;84.20
23556;DHT22;11956;53.184;8.578;2023-05-18T08:11:37;23.40;73.20
23556;DHT22;11956;53.184;8.578;2023-05-18T08:14:38;27.00;59.50
23556;DHT22;11956;53.184;8.578;2023-05-18T08:17:38;24.50;56.00
23556;DHT22;11956;53.184;8.578;2023-05-18T08:20:39;25.90;54.50
23556;DHT22;11956;53.184;8.578;2023-05-18T08:23:40;26.10;51.30
23556;DHT22;11956;53.184;8.578;2023-05-18T08:26:41;25.40;53.20
23556;DHT22;11956;53.184;8.578;2023-05-18T08:29:42;27.80;50.00
23556;DHT22;11956;53.184;8.578;2023-05-18T08:32:43;26.50;48.60
23556;DHT22;11956;53.184;8.578;2023-05-18T08:35:44;24.30;51.50
23556;DHT22;11956;53.184;8.578;2023-05-18T08:38:45;22.60;54.20
23556;DHT22;11956;53.184;8.578;2023-05-18T08:45:39;21.80;57.30
23556;DHT22;11956;53.184;8.578;2023-05-18T08:48:44;19.90;58.60
23556;DHT22;11956;53.184;8.578;2023-05-18T08:51:54;18.90;62.30
23556;DHT22;11956;53.184;8.578;2023-05-18T08:54:58;17.50;66.20
23556;DHT22;11956;53.184;8.578;2023-05-18T08:58:01;17.00;69.70
23556;DHT22;11956;53.184;8.578;2023-05-18T09:01:03;16.80;72.00
23556;DHT22;11956;53.184;8.578;2023-05-18T09:04:05;16.60;72.10
23556;DHT22;11956;53.184;8.578;2023-05-18T09:07:08;16.60;73.50
23556;DHT22;11956;53.184;8.578;2023-05-18T09:10:11;16.80;71.70
23556;DHT22;11956;53.184;8.578;2023-05-18T09:13:18;16.30;73.40
23556;DHT22;11956;53.184;8.578;2023-05-18T09:16:20;15.90;75.70
23556;DHT22;11956;53.184;8.578;2023-05-18T09:19:21;16.10;75.60
23556;DHT22;11956;53.184;8.578;2023-05-18T09:22:24;16.80;73.80
23556;DHT22;11956;53.184;8.578;2023-05-18T09:25:26;17.30;72.10
23556;DHT22;11956;53.184;8.578;2023-05-18T09:28:36;19.20;69.80
23556;DHT22;11956;53.184;8.578;2023-05-18T09:31:38;21.20;63.30
23556;DHT22;11956;53.184;8.578;2023-05-18T09:34:41;22.90;59.60
23556;DHT22;11956;53.184;8.578;2023-05-18T09:37:42;23.70;56.60
23556;DHT22;11956;53.184;8.578;2023-05-18T09:40:45;25.00;55.10
23556;DHT22;11956;53.184;8.578;2023-05-18T09:43:49;26.60;51.50
23556;DHT22;11956;53.184;8.578;2023-05-18T09:46:54;28.20;49.60
23556;DHT22;11956;53.184;8.578;2023-05-18T09:49:56;29.50;47.20
23556;DHT22;11956;53.184;8.578;2023-05-18T09:52:58;27.70;47.20
23556;DHT22;11956;53.184;8.578;2023-05-18T09:56:03;27.20;48.40
23556;DHT22;11956;53.184;8.578;2023-05-18T09:59:13;26.90;47.60
23556;DHT22;11956;53.184;8.578;2023-05-18T10:02:17;28.90;46.20
23556;DHT22;11956;53.184;8.578;2023-05-18T10:08:23;26.10;47.30
23556;DHT22;11956;53.184;8.578;2023-05-18T10:11:24;24.80;49.30
23556;DHT22;11956;53.184;8.578;2023-05-18T10:14:26;25.40;48.00
23556;DHT22;11956;53.184;8.578;2023-05-18T10:17:37;25.80;46.60
23556;DHT22;11956;53.184;8.578;2023-05-18T10:20:38;24.90;48.00
23556;DHT22;11956;53.184;8.578;2023-05-18T10:23:40;26.50;47.00
23556;DHT22;11956;53.184;8.578;2023-05-18T10:26:43;27.30;45.70
23556;DHT22;11956;53.184;8.578;2023-05-18T10:29:45;28.20;44.70
23556;DHT22;11956;53.184;8.578;2023-05-18T10:32:47;27.80;45.10
23556;DHT22;11956;53.184;8.578;2023-05-18T10:35:49;26.60;45.60
23556;DHT22;11956;53.184;8.578;2023-05-18T10:38:50;25.30;47.90
23556;DHT22;11956;53.184;8.578;2023-05-18T10:41:54;24.60;49.60
23556;DHT22;11956;53.184;8.578;2023-05-18T10:44:56;24.40;48.60
23556;DHT22;11956;53.184;8.578;2023-05-18T10:47:59;24.00;49.70
23556;DHT22;11956;53.184;8.578;2023-05-18T10:51:01;23.00;51.50
23556;DHT22;11956;53.184;8.578;2023-05-18T10:54:11;22.40;52.50
23556;DHT22;11956;53.184;8.578;2023-05-18T10:57:17;21.30;54.00
23556;DHT22;11956;53.184;8.578;2023-05-18T11:00:19;20.50;56.20
23556;DHT22;11956;53.184;8.578;2023-05-18T11:03:21;19.90;57.80
23556;DHT22;11956;53.184;8.578;2023-05-18T11:06:23;19.30;58.20
23556;DHT22;11956;53.184;8.578;2023-05-18T11:09:25;18.00;63.60
23556;DHT22;11956;53.184;8.578;2023-05-18T11:12:26;17.50;64.10
23556;DHT22;11956;53.184;8.578;2023-05-18T11:16:02;16.50;67.40
23556;DHT22;11956;53.184;8.578;2023-05-18T11:19:08;16.60;71.20
23556;DHT22;11956;53.184;8.578;2023-05-18T11:22:11;16.30;69.50
23556;DHT22;11956;53.184;8.578;2023-05-18T11:28:27;15.90;72.00
23556;DHT22;11956;53.184;8.578;2023-05-18T11:31:51;15.80;73.30
23556;DHT22;11956;53.184;8.578;2023-05-18T11:34:53;15.80;73.30
23556;DHT22;11956;53.184;8.578;2023-05-18T11:38:08;16.20;73.50
23556;DHT22;11956;53.184;8.578;2023-05-18T11:41:37;16.30;73.30
23556;DHT22;11956;53.184;8.578;2023-05-18T11:44:51;16.20;74.40
23556;DHT22;11956;53.184;8.578;2023-05-18T11:47:56;16.20;73.60
23556;DHT22;11956;53.184;8.578;2023-05-18T11:51:01;16.20;73.00
23556;DHT22;11956;53.184;8.578;2023-05-18T11:54:07;16.20;73.30
23556;DHT22;11956;53.184;8.578;2023-05-18T11:57:09;16.20;74.60
23556;DHT22;11956;53.184;8.578;2023-05-18T12:00:11;16.20;77.40
23556;DHT22;11956;53.184;8.578;2023-05-18T12:03:15;16.20;74.90
23556;DHT22;11956;53.184;8.578;2023-05-18T12:06:16;16.20;78.20
23556;DHT22;11956;53.184;8.578;2023-05-18T12:09:20;15.90;77.80
23556;DHT22;11956;53.184;8.578;2023-05-18T12:12:21;15.60;78.80
23556;DHT22;11956;53.184;8.578;2023-05-18T12:15:23;15.80;78.60
23556;DHT22;11956;53.184;8.578;2023-05-18T12:18:27;15.90;76.90
23556;DHT22;11956;53.184;8.578;2023-05-18T12:21:29;15.80;76.40
23556;DHT22;11956;53.184;8.578;2023-05-18T12:24:31;15.70;78.80
23556;DHT22;11956;53.184;8.578;2023-05-18T12:27:40;15.70;78.20
23556;DHT22;11956;53.184;8.578;2023-05-18T12:30:47;15.80;77.40
23556;DHT22;11956;53.184;8.578;2023-05-18T12:33:48;15.80;79.00
23556;DHT22;11956;53.184;8.578;2023-05-18T12:36:51;15.60;79.00
23556;DHT22;11956;53.184;8.578;2023-05-18T12:39:56;15.60;80.00
23556;DHT22;11956;53.184;8.578;2023-05-18T12:42:58;15.70;79.20
23556;DHT22;11956;53.184;8.578;2023-05-18T12:46:03;15.70;79.90
23556;DHT22;11956;53.184;8.578;2023-05-18T12:49:05;15.60;80.20
23556;DHT22;11956;53.184;8.578;2023-05-18T12:52:13;15.40;78.60
23556;DHT22;11956;53.184;8.578;2023-05-18T12:55:20;15.40;79.60
23556;DHT22;11956;53.184;8.578;2023-05-18T12:58:21;15.60;79.10
23556;DHT22;11956;53.184;8.578;2023-05-18T13:01:22;15.50;78.40
23556;DHT22;11956;53.184;8.578;2023-05-18T13:04:34;15.50;78.70
23556;DHT22;11956;53.184;8.578;2023-05-18T13:07:40;15.70;78.40
23556;DHT22;11956;53.184;8.578;2023-05-18T13:10:43;15.90;79.80
23556;DHT22;11956;53.184;8.578;2023-05-18T13:14:00;16.10;78.20
23556;DHT22;11956;53.184;8.578;2023-05-18T13:17:05;16.20;75.60
23556;DHT22;11956;53.184;8.578;2023-05-18T13:20:15;16.10;78.10
23556;DHT22;11956;53.184;8.578;2023-05-18T13:23:18;15.90;77.40
23556;DHT22;11956;53.184;8.578;2023-05-18T13:26:24;15.90;77.40
23556;DHT22;11956;53.184;8.578;2023-05-18T13:29:25;15.90;77.80
23556;DHT22;11956;53.184;8.578;2023-05-18T13:32:26;16.00;76.00
23556;DHT22;11956;53.184;8.578;2023-05-18T13:35:27;15.60;77.00
23556;DHT22;11956;53.184;8.578;2023-05-18T13:38:28;15.60;77.10
23556;DHT22;11956;53.184;8.578;2023-05-18T13:41:28;15.60;76.30
23556;DHT22;11956;53.184;8.578;2023-05-18T13:44:29;15.70;77.10
23556;DHT22;11956;53.184;8.578;2023-05-18T13:47:30;15.80;78.50
23556;DHT22;11956;53.184;8.578;2023-05-18T13:50:31;15.80;78.10
23556;DHT22;11956;53.184;8.578;2023-05-18T13:53:33;15.70;77.30
23556;DHT22;11956;53.184;8.578;2023-05-18T13:56:34;15.80;77.50
23556;DHT22;11956;53.184;8.578;2023-05-18T13:59:35;16.00;79.60
23556;DHT22;11956;53.184;8.578;2023-05-18T14:02:36;16.10;80.20
23556;DHT22;11956;53.184;8.578;2023-05-18T14:05:37;16.00;89.60
23556;DHT22;11956;53.184;8.578;2023-05-18T14:08:38;16.20;91.90
23556;DHT22;11956;53.184;8.578;2023-05-18T14:11:39;16.30;90.30
23556;DHT22;11956;53.184;8.578;2023-05-18T14:14:40;16.20;80.90
23556;DHT22;11956;53.184;8.578;2023-05-18T14:17:42;16.20;79.30
23556;DHT22;11956;53.184;8.578;2023-05-18T14:20:43;16.10;89.50
23556;DHT22;11956;53.184;8.578;2023-05-18T14:23:45;16.10;92.60
23556;DHT22;11956;53.184;8.578;2023-05-18T14:26:47;16.10;93.70
23556;DHT22;11956;53.184;8.578;2023-05-18T14:29:49;16.00;92.90
23556;DHT22;11956;53.184;8.578;2023-05-18T14:32:50;16.00;93.40
23556;DHT22;11956;53.184;8.578;2023-05-18T14:35:51;16.00;93.00
23556;DHT22;11956;53.184;8.578;2023-05-18T14:38:52;16.00;93.50
23556;DHT22;11956;53.184;8.578;2023-05-18T14:41:53;15.90;94.30
23556;DHT22;11956;53.184;8.578;2023-05-18T14:44:54;15.80;95.10
23556;DHT22;11956;53.184;8.578;2023-05-18T14:47:54;15.80;95.40
23556;DHT22;11956;53.184;8.578;2023-05-18T14:50:55;15.60;95.50
23556;DHT22;11956;53.184;8.578;2023-05-18T14:53:56;15.50;95.90
23556;DHT22;11956;53.184;8.578;2023-05-18T14:56:57;15.50;96.60
23556;DHT22;11956;53.184;8.578;2023-05-18T14:59:59;15.50;97.10
23556;DHT22;11956;53.184;8.578;2023-05-18T15:03:00;15.60;97.20
23556;DHT22;11956;53.184;8.578;2023-05-18T15:06:01;15.80;97.40
23556;DHT22;11956;53.184;8.578;2023-05-18T15:09:02;15.80;97.40
23556;DHT22;11956;53.184;8.578;2023-05-18T15:12:04;15.90;97.00
23556;DHT22;11956;53.184;8.578;2023-05-18T15:15:06;15.80;96.80
23556;DHT22;11956;53.184;8.578;2023-05-18T15:18:07;15.70;97.10
23556;DHT22;11956;53.184;8.578;2023-05-18T15:21:08;15.70;96.90
23556;DHT22;11956;53.184;8.578;2023-05-18T15:24:09;15.70;97.60
23556;DHT22;11956;53.184;8.578;2023-05-18T15:27:10;15.80;97.80
23556;DHT22;11956;53.184;8.578;2023-05-18T15:30:11;15.80;97.50
23556;DHT22;11956;53.184;8.578;2023-05-18T15:33:13;15.80;97.70
23556;DHT22;11956;53.184;8.578;2023-05-18T15:36:13;16.00;97.80
23556;DHT22;11956;53.184;8.578;2023-05-18T15:39:14;15.80;97.90
23556;DHT22;11956;53.184;8.578;2023-05-18T15:42:15;15.80;98.80
23556;DHT22;11956;53.184;8.578;2023-05-18T15:45:17;15.80;98.60
23556;DHT22;11956;53.184;8.578;2023-05-18T15:48:18;15.70;98.10
23556;DHT22;11956;53.184;8.578;2023-05-18T15:51:19;15.60;98.80
23556;DHT22;11956;53.184;8.578;2023-05-18T15:54:20;15.50;98.70
23556;DHT22;11956;53.184;8.578;2023-05-18T15:57:21;15.50;99.30
23556;DHT22;11956;53.184;8.578;2023-05-18T16:00:22;15.40;99.10
23556;DHT22;11956;53.184;8.578;2023-05-18T16:03:23;15.40;99.40
23556;DHT22;11956;53.184;8.578;2023-05-18T16:06:24;15.30;99.80
23556;DHT22;11956;53.184;8.578;2023-05-18T16:09:25;15.30;99.90
23556;DHT22;11956;53.184;8.578;2023-05-18T16:12:25;15.50;99.90
23556;DHT22;11956;53.184;8.578;2023-05-18T16:15:26;15.40;99.90
23556;DHT22;11956;53.184;8.578;2023-05-18T16:18:27;15.50;99.90
23556;DHT22;11956;53.184;8.578;2023-05-18T16:21:28;15.50;99.90
23556;DHT22;11956;53.184;8.578;2023-05-18T16:24:31;15.50;99.90
23556;DHT22;11956;53.184;8.578;2023-05-18T16:27:32;15.50;99.90
23556;DHT22;11956;53.184;8.578;2023-05-18T16:30:32;15.30;99.90
23556;DHT22;11956;53.184;8.578;2023-05-18T16:33:34;15.20;99.90
23556;DHT22;11956;53.184;8.578;2023-05-18T16:36:34;15.30;99.90
23556;DHT22;11956;53.184;8.578;2023-05-18T16:39:36;15.30;99.90
23556;DHT22;11956;53.184;8.578;2023-05-18T16:42:36;15.30;99.90
23556;DHT22;11956;53.184;8.578;2023-05-18T16:45:37;15.40;99.90
23556;DHT22;11956;53.184;8.578;2023-05-18T16:48:39;15.50;99.90
23556;DHT22;11956;53.184;8.578;2023-05-18T16:51:40;15.40;99.90
23556;DHT22;11956;53.184;8.578;2023-05-18T16:54:41;15.50;99.90
23556;DHT22;11956;53.184;8.578;2023-05-18T16:57:42;15.40;99.90
23556;DHT22;11956;53.184;8.578;2023-05-18T17:00:43;15.40;99.90
23556;DHT22;11956;53.184;8.578;2023-05-18T17:03:44;15.40;99.90
23556;DHT22;11956;53.184;8.578;2023-05-18T17:06:45;15.40;99.90
23556;DHT22;11956;53.184;8.578;2023-05-18T17:09:46;15.40;99.90
23556;DHT22;11956;53.184;8.578;2023-05-18T17:12:47;15.40;99.90
23556;DHT22;11956;53.184;8.578;2023-05-18T17:15:47;15.30;99.90
23556;DHT22;11956;53.184;8.578;2023-05-18T17:18:48;15.30;99.90
23556;DHT22;11956;53.184;8.578;2023-05-18T17:21:49;15.40;99.00
23556;DHT22;11956;53.184;8.578;2023-05-18T17:24:51;15.30;96.90
23556;DHT22;11956;53.184;8.578;2023-05-18T17:27:52;15.30;96.00
23556;DHT22;11956;53.184;8.578;2023-05-18T17:30:53;15.30;95.50
23556;DHT22;11956;53.184;8.578;2023-05-18T17:33:53;15.30;94.50
23556;DHT22;11956;53.184;8.578;2023-05-18T17:36:55;15.30;93.60
23556;DHT22;11956;53.184;8.578;2023-05-18T17:39:56;15.30;93.30
23556;DHT22;11956;53.184;8.578;2023-05-18T17:42:57;15.10;92.50
23556;DHT22;11956;53.184;8.578;2023-05-18T17:45:58;15.10;92.30
23556;DHT22;11956;53.184;8.578;2023-05-18T17:48:59;15.00;92.10
23556;DHT22;11956;53.184;8.578;2023-05-18T17:52:03;15.00;91.90
23556;DHT22;11956;53.184;8.578;2023-05-18T17:55:05;15.00;91.70
23556;DHT22;11956;53.184;8.578;2023-05-18T17:58:06;14.90;91.30
23556;DHT22;11956;53.184;8.578;2023-05-18T18:01:07;14.80;91.40
23556;DHT22;11956;53.184;8.578;2023-05-18T18:04:08;14.80;91.60
23556;DHT22;11956;53.184;8.578;2023-05-18T18:07:09;14.80;91.90
23556;DHT22;11956;53.184;8.578;2023-05-18T18:10:11;14.70;92.30
23556;DHT22;11956;53.184;8.578;2023-05-18T18:13:11;14.70;92.90
23556;DHT22;11956;53.184;8.578;2023-05-18T18:16:13;14.70;93.10
23556;DHT22;11956;53.184;8.578;2023-05-18T18:19:14;14.60;93.30
23556;DHT22;11956;53.184;8.578;2023-05-18T18:22:15;14.60;93.70
23556;DHT22;11956;53.184;8.578;2023-05-18T18:25:16;14.50;94.20
23556;DHT22;11956;53.184;8.578;2023-05-18T18:28:17;14.50;94.30
23556;DHT22;11956;53.184;8.578;2023-05-18T18:31:19;14.50;94.20
23556;DHT22;11956;53.184;8.578;2023-05-18T18:34:20;14.40;94.80
23556;DHT22;11956;53.184;8.578;2023-05-18T18:37:21;14.30;95.00
23556;DHT22;11956;53.184;8.578;2023-05-18T18:40:22;14.30;95.30
23556;DHT22;11956;53.184;8.578;2023-05-18T18:43:23;14.20;95.40
23556;DHT22;11956;53.184;8.578;2023-05-18T18:46:24;14.10;96.00
23556;DHT22;11956;53.184;8.578;2023-05-18T18:49:25;14.00;97.00
23556;DHT22;11956;53.184;8.578;2023-05-18T18:52:26;13.90;99.90
23556;DHT22;11956;53.184;8.578;2023-05-18T18:55:27;13.80;99.90
23556;DHT22;11956;53.184;8.578;2023-05-18T18:58:27;13.70;99.90
23556;DHT22;11956;53.184;8.578;2023-05-18T19:01:28;13.60;99.90
23556;DHT22;11956;53.184;8.578;2023-05-18T19:04:29;13.50;99.90
23556;DHT22;11956;53.184;8.578;2023-05-18T19:07:33;13.30;99.90
23556;DHT22;11956;53.184;8.578;2023-05-18T19:10:35;13.20;99.90
23556;DHT22;11956;53.184;8.578;2023-05-18T19:13:36;13.10;99.90
23556;DHT22;11956;53.184;8.578;2023-05-18T19:16:36;13.00;99.90
23556;DHT22;11956;53.184;8.578;2023-05-18T19:19:37;12.90;99.90
23556;DHT22;11956;53.184;8.578;2023-05-18T19:22:38;12.80;99.90
23556;DHT22;11956;53.184;8.578;2023-05-18T19:25:39;12.80;99.90
23556;DHT22;11956;53.184;8.578;2023-05-18T19:28:40;12.70;99.90
23556;DHT22;11956;53.184;8.578;2023-05-18T19:31:41;12.60;99.90
23556;DHT22;11956;53.184;8.578;2023-05-18T19:34:42;12.50;99.90